Here is the Quick Look data you requested

The Data originates at the National Weather Service, and is made available here by the UAlbany Department of Atmospheric and Environmental Sciences

Surface Observations

KCHS 142356Z 13011KT 10SM FEW026 FEW110 28/23 A3008 RMK AO2 SLP184 T02830228
 10317 20283 55001=
KCHS 150056Z 12005KT 10SM FEW024 FEW095 27/23 A3009 RMK AO2 SLP187 T02670228=
KCHS 150156Z 11003KT 10SM FEW025 SCT090 27/23 A3010 RMK AO2 SLP192 T02670233=
KCHS 150256Z 10005KT 10SM FEW020 27/23 A3010 RMK AO2 SLP192 T02670233 50008=
KCHS 150356Z 04003KT 10SM FEW030 25/24 A3011 RMK AO2 SLP194 T02500239=
KCHS 150456Z 05003KT 10SM FEW020 25/23 A3009 RMK AO2 SLP189 T02500233 403170239=
KCHS 150556Z 00000KT 10SM FEW015 24/24 A3009 RMK AO2 SLP187 T02440239 10283
 20239 58005=
KCHS 150656Z 05004KT 10SM FEW020 24/23 A3007 RMK AO2 SLP180 T02390233=
KCHS 150756Z 06003KT 10SM FEW020 24/23 A3005 RMK AO2 SLP176 T02440233=
KCHS 150856Z 04004KT 10SM CLR 23/23 A3006 RMK AO2 SLP177 T02330228 55010=
KCHS 150956Z 00000KT 10SM FEW020 SCT200 23/23 A3006 RMK AO2 SLP179 T02280228=
KCHS 151056Z 04003KT 10SM FEW020 SCT050 SCT200 24/23 A3007 RMK AO2 SLP181
 T02390233=
KCHS 151156Z 02003KT 10SM FEW050 SCT200 26/24 A3009 RMK AO2 SLP189 T02560239
 10256 20228 53012=
KCHS 151256Z 05003KT 10SM FEW050 SCT200 28/24 A3010 RMK AO2 SLP192 T02780239=
KCHS 151356Z 00000KT 10SM FEW020 FEW038 SCT200 28/22 A3010 RMK AO2 SLP191
 T02830222=
KCHS 151456Z 10SM CLR 31/22 A3009 RMK AO2 SLP189 T03060222 58000=
KCHS 151456Z COR 05007KT 10SM FEW026 FEW038 SCT200 31/22 A3009 RMK AO2 SLP189
 T03060222 58000=
KCHS 151556Z 03005KT 10SM FEW030 SCT200 32/21 A3009 RMK AO2 SLP188 T03170211=
KCHS 151656Z 00000KT 10SM FEW046 SCT200 32/21 A3007 RMK AO2 SLP183 T03170206=
KCHS 151756Z 15009KT 10SM BKN050 BKN200 31/20 A3006 RMK AO2 SLP180 T03060200
 10328 20256 58009=
KCHS 151856Z 15007KT 10SM FEW050 BKN250 32/21 A3005 RMK AO2 SLP173 T03170211=
KCHS 151956Z 16008KT 10SM SCT050 BKN250 32/21 A3003 RMK AO2 SLP170 T03220211=
KCHS 152056Z 15010KT 10SM FEW050 SCT250 31/21 A3003 RMK AO2 SLP166 T03110211
 56013=
KCHS 152156Z 15012KT 10SM SCT250 31/21 A3001 RMK AO2 SLP161 T03060211=
KCHS 152256Z 15009KT 10SM SCT250 29/19 A3002 RMK AO2 SLP164 T02940194=
KCHS 152356Z 17008KT 10SM SCT250 28/20 A3003 RMK AO2 SLP168 T02830200 10322
 20283 53001=
KCHS 160056Z 16004KT 10SM FEW120 SCT250 27/21 A3004 RMK AO2 SLP172 T02670206=
KCHS 160156Z 20005KT 10SM SCT100 26/21 A3005 RMK AO2 SLP176 T02610206=
KCHS 160256Z 20004KT 10SM BKN100 26/21 A3006 RMK AO2 SLP180 T02610211 51012=
KCHS 160356Z 00000KT 10SM BKN100 26/21 A3006 RMK AO2 SLP178 T02610211=
KCHS 160456Z 00000KT 10SM CLR 25/21 A3005 RMK AO2 SLP174 T02500211 403280228=
KCHS 160556Z 00000KT 10SM CLR 24/21 A3004 RMK AO2 SLP173 T02440211 10283 20244
 56006=
KCHS 160656Z 00000KT 10SM FEW095 24/21 A3004 RMK AO2 SLP170 T02390211=
KCHS 160756Z 00000KT 10SM SCT100 23/22 A3003 RMK AO2 SLP169 T02330217=
KCHS 160856Z 00000KT 10SM FEW100 24/22 A3003 RMK AO2 SLP168 T02390217 56005=
KCHS 160956Z 00000KT 10SM SCT100 SCT250 23/22 A3004 RMK AO2 SLP173 T02280217=
KCHS 161056Z 00000KT 8SM SCT110 SCT250 23/22 A3005 RMK AO2 SLP176 T02330217=
KCHS 161156Z 00000KT 10SM SCT250 26/23 A3006 RMK AO2 SLP177 T02610233 10261
 20222 51009=